WWD weather

Cape May County Airport
Wildwood, New Jersey, United States

Public forecast

Using degrees Fahrenheit for public forecast. Weather courtesy of forecast.io.

METAR (pilot weather report)

Retrieved 2017/10/21 11:55 UTC (47 minutes ago):

KWWD 211155Z AUTO 10SM CLR 08/06 A3032 RMK AO2 SLP269 T00830061 10106 20072 53018

TAF (pilot weather forecast)

Closest forecast is Millville Municipal Airport, 22.9 nm (42.4 km) NNW. Retrieved 2017/10/21 12:22 UTC (20 minutes ago):

TAF KMIV 211120Z 2112/2212 VRB03KT P6SM FEW250